createdAt,value
2024-05-09T00:04:22.522Z,29.29
2024-05-09T00:09:24.086Z,30.14
2024-05-09T00:14:25.771Z,29.85
2024-05-09T00:19:27.640Z,29.73
2024-05-09T00:24:29.247Z,30.04
2024-05-09T00:29:30.967Z,30.50
2024-05-09T00:34:32.631Z,30.00
2024-05-09T00:39:34.281Z,30.30
2024-05-09T00:44:35.856Z,30.82
2024-05-09T00:49:37.671Z,30.63
2024-05-09T00:54:39.363Z,30.35
2024-05-09T00:59:40.948Z,30.88
2024-05-09T01:04:42.585Z,30.40
2024-05-09T01:09:44.235Z,30.99
2024-05-09T01:14:45.836Z,31.03
2024-05-09T01:19:47.724Z,31.19
2024-05-09T01:24:49.658Z,30.85
2024-05-09T01:29:51.233Z,31.15
2024-05-09T01:34:52.786Z,30.92
2024-05-09T01:39:54.478Z,30.80
2024-05-09T01:44:56.033Z,31.32
2024-05-09T01:49:57.697Z,31.00
2024-05-09T01:55:00.759Z,31.31
2024-05-09T02:00:07.738Z,30.80
2024-05-09T02:05:09.853Z,31.22
2024-05-09T02:10:20.008Z,31.49
2024-05-09T02:15:24.851Z,30.69
2024-05-09T02:20:33.866Z,31.21
2024-05-09T02:25:38.072Z,30.86
2024-05-09T02:30:41.703Z,30.83
2024-05-09T02:35:44.510Z,30.94
2024-05-09T02:40:46.307Z,30.76
2024-05-09T02:45:47.875Z,30.38
2024-05-09T02:50:49.466Z,30.30
2024-05-09T02:55:51.124Z,30.30
2024-05-09T03:00:52.789Z,30.23
2024-05-09T03:05:54.385Z,30.20
2024-05-09T03:10:56.020Z,30.58
2024-05-09T03:15:59.664Z,29.93
2024-05-09T03:21:01.276Z,30.08
2024-05-09T03:26:02.872Z,29.61
2024-05-09T03:31:04.589Z,29.89
2024-05-09T03:36:09.103Z,30.15
2024-05-09T03:41:12.713Z,29.88
2024-05-09T03:46:14.267Z,29.74
2024-05-09T03:51:15.842Z,29.33
2024-05-09T03:56:17.434Z,29.92
2024-05-09T04:01:19.102Z,29.72
2024-05-09T04:06:24.689Z,29.96
2024-05-09T04:11:26.358Z,29.87
2024-05-09T04:16:28.263Z,29.69
2024-05-09T04:21:29.816Z,29.88
2024-05-09T04:26:31.436Z,29.59
2024-05-09T04:31:36.224Z,29.85
2024-05-09T04:36:39.646Z,30.00
2024-05-09T04:41:42.541Z,29.65
2024-05-09T04:46:44.175Z,29.44
2024-05-09T04:51:45.805Z,29.36
2024-05-09T04:56:47.380Z,29.87
2024-05-09T05:01:49.079Z,29.14
2024-05-09T05:06:50.671Z,29.71
2024-05-09T05:11:52.405Z,29.56
2024-05-09T05:16:54.101Z,29.28
2024-05-09T05:21:55.660Z,29.24
2024-05-09T05:26:57.220Z,29.41
2024-05-09T05:31:58.941Z,29.73
2024-05-09T05:37:00.558Z,29.77
2024-05-09T05:42:02.151Z,29.29
2024-05-09T05:47:03.778Z,29.92
2024-05-09T05:52:05.466Z,29.67
2024-05-09T05:57:07.043Z,29.54
2024-05-09T06:02:09.589Z,29.50
2024-05-09T06:07:11.233Z,29.92
2024-05-09T06:12:12.983Z,29.73
2024-05-09T06:17:14.718Z,29.56
2024-05-09T06:22:16.320Z,29.55
2024-05-09T06:27:17.870Z,29.80
2024-05-09T06:32:19.745Z,30.22
2024-05-09T06:37:21.542Z,30.47
2024-05-09T06:42:23.101Z,30.16
2024-05-09T06:47:24.886Z,30.42
2024-05-09T06:52:26.536Z,30.24
2024-05-09T06:57:30.787Z,31.14
2024-05-09T07:02:32.589Z,30.50
2024-05-09T07:07:34.252Z,31.02
2024-05-09T07:12:35.824Z,31.26
2024-05-09T07:17:38.004Z,30.93
2024-05-09T07:22:39.668Z,30.80
2024-05-09T07:27:41.212Z,31.04
2024-05-09T07:32:44.907Z,30.71
2024-05-09T07:37:46.764Z,31.01
2024-05-09T07:42:48.307Z,31.21
2024-05-09T07:49:13.658Z,31.20
2024-05-09T07:53:37.147Z,30.92
2024-05-09T07:58:32.913Z,30.88
2024-05-09T08:03:34.715Z,30.31
2024-05-09T08:08:36.500Z,30.78
2024-05-09T08:13:38.058Z,30.69
2024-05-09T08:18:40.005Z,30.06
2024-05-09T08:23:41.724Z,30.39
2024-05-09T08:28:43.278Z,29.71
2024-05-09T08:33:50.509Z,29.89
2024-05-09T08:38:52.175Z,29.59
2024-05-09T08:43:53.873Z,29.77
2024-05-09T08:48:55.659Z,30.00
2024-05-09T08:53:57.329Z,29.52
2024-05-09T08:59:00.300Z,29.20
2024-05-09T09:04:02.339Z,29.13
2024-05-09T09:09:04.040Z,28.75
2024-05-09T09:14:05.589Z,28.47
2024-05-09T09:19:07.423Z,28.70
2024-05-09T09:24:10.036Z,28.61
2024-05-09T09:29:11.673Z,28.82
2024-05-09T09:34:13.344Z,28.48
2024-05-09T09:39:15.057Z,28.51
2024-05-09T09:44:16.612Z,28.48
2024-05-09T09:49:18.259Z,28.61
2024-05-09T09:54:20.192Z,28.49
2024-05-09T09:59:21.762Z,28.81
2024-05-09T10:04:23.397Z,28.41
2024-05-09T10:09:25.078Z,28.46
2024-05-09T10:14:26.630Z,28.62
2024-05-09T10:19:28.495Z,28.12
2024-05-09T10:24:48.816Z,28.46
2024-05-09T10:29:58.017Z,28.91
2024-05-09T10:35:11.708Z,28.38
2024-05-09T10:40:23.420Z,28.72
2024-05-09T10:45:30.612Z,28.21
2024-05-09T10:50:34.386Z,28.32
2024-05-09T10:55:36.320Z,27.77
2024-05-09T11:00:38.031Z,28.05
2024-05-09T11:05:42.009Z,28.44
2024-05-09T11:10:43.733Z,28.01
2024-05-09T11:15:45.355Z,27.68
2024-05-09T11:20:47.553Z,27.90
2024-05-09T11:25:49.901Z,28.18
2024-05-09T11:30:51.577Z,27.76
2024-05-09T11:35:53.146Z,28.19
2024-05-09T11:40:54.812Z,27.83
2024-05-09T11:45:57.086Z,27.42
2024-05-09T11:50:58.687Z,27.74
2024-05-09T11:56:00.232Z,28.00
2024-05-09T12:01:02.113Z,28.15
2024-05-09T12:06:04.118Z,27.79
2024-05-09T12:11:06.098Z,27.75
2024-05-09T12:16:07.927Z,27.48
2024-05-09T12:21:09.642Z,27.98
2024-05-09T12:26:11.195Z,28.02
2024-05-09T12:31:12.834Z,27.66
2024-05-09T12:36:14.421Z,28.09
2024-05-09T12:41:15.978Z,28.06
2024-05-09T12:46:20.325Z,27.79
2024-05-09T12:51:21.912Z,28.26
2024-05-09T12:56:23.452Z,28.13
2024-05-09T13:01:25.129Z,28.04
2024-05-09T13:06:26.768Z,27.74
2024-05-09T13:11:28.346Z,28.16
2024-05-09T13:16:30.079Z,27.94
2024-05-09T13:21:31.668Z,28.11
2024-05-09T13:26:33.313Z,28.45
2024-05-09T13:31:34.894Z,28.05
2024-05-09T13:36:36.510Z,28.15
2024-05-09T13:41:38.085Z,28.28
2024-05-09T13:46:39.642Z,28.20
2024-05-09T13:51:41.322Z,28.59
2024-05-09T13:56:42.931Z,28.83
2024-05-09T14:01:44.686Z,28.66
2024-05-09T14:06:46.352Z,28.70
2024-05-09T14:11:47.970Z,28.03
2024-05-09T14:16:49.679Z,28.67
2024-05-09T14:21:51.313Z,27.87
2024-05-09T14:26:52.905Z,28.26
2024-05-09T14:31:54.462Z,27.88
2024-05-09T14:36:56.082Z,27.93
2024-05-09T14:41:57.627Z,28.29
2024-05-09T14:46:59.668Z,28.30
2024-05-09T14:52:01.328Z,27.67
2024-05-09T14:57:02.915Z,28.35
2024-05-09T15:02:04.606Z,28.60
2024-05-09T15:07:07.597Z,28.45
2024-05-09T15:12:09.838Z,28.44
2024-05-09T15:17:11.388Z,27.88
2024-05-09T15:22:16.230Z,27.85
2024-05-09T15:27:18.063Z,27.96
2024-05-09T15:32:19.632Z,28.08
2024-05-09T15:37:21.495Z,28.34
2024-05-09T15:42:23.063Z,28.46
2024-05-09T15:47:24.647Z,28.28
2024-05-09T15:52:26.371Z,27.58
2024-05-09T15:57:28.090Z,28.04
2024-05-09T16:02:29.876Z,28.10
2024-05-09T16:07:31.505Z,27.92
2024-05-09T16:12:33.094Z,27.93
2024-05-09T16:17:34.855Z,28.37
2024-05-09T16:22:36.806Z,28.39
2024-05-09T16:27:38.373Z,28.49
2024-05-09T16:32:41.398Z,28.06
2024-05-09T16:37:43.019Z,28.10
2024-05-09T16:42:45.804Z,28.36
2024-05-09T16:47:47.673Z,28.30
2024-05-09T16:52:49.281Z,27.97
2024-05-09T16:57:51.010Z,28.09
2024-05-09T17:02:54.611Z,28.14
2024-05-09T17:07:56.222Z,27.82
2024-05-09T17:12:57.782Z,28.25
2024-05-09T17:18:00.767Z,28.37
2024-05-09T17:23:02.515Z,29.01
2024-05-09T17:28:06.388Z,28.80
2024-05-09T17:33:09.798Z,28.77
2024-05-09T17:38:12.414Z,28.69
2024-05-09T17:43:13.997Z,29.13
2024-05-09T17:48:15.713Z,29.11
2024-05-09T17:53:17.350Z,29.12
2024-05-09T17:58:18.972Z,29.35
2024-05-09T18:03:22.611Z,29.54
2024-05-09T18:08:24.226Z,29.42
2024-05-09T18:13:26.636Z,29.97
2024-05-09T18:18:28.388Z,29.90
2024-05-09T18:23:31.013Z,30.06
2024-05-09T18:28:32.647Z,30.20
2024-05-09T18:33:34.425Z,30.64
2024-05-09T18:38:36.197Z,30.47
2024-05-09T18:43:44.674Z,30.64
2024-05-09T18:48:47.256Z,30.65
2024-05-09T18:53:48.913Z,31.54
2024-05-09T18:58:50.458Z,31.17
2024-05-09T19:03:53.013Z,31.00
2024-05-09T19:08:54.674Z,31.02
2024-05-09T19:13:58.523Z,31.21
2024-05-09T19:19:01.181Z,31.74
2024-05-09T19:24:02.880Z,31.71
2024-05-09T19:29:04.442Z,31.69
2024-05-09T19:34:06.057Z,32.42
2024-05-09T19:39:07.647Z,32.21
2024-05-09T19:44:09.248Z,32.38
2024-05-09T19:49:11.087Z,32.48
2024-05-09T19:54:12.742Z,32.28
2024-05-09T19:59:14.300Z,32.25
2024-05-09T20:04:16.027Z,32.51
2024-05-09T20:09:17.738Z,33.30
2024-05-09T20:14:19.308Z,33.19
2024-05-09T20:19:21.085Z,33.38
2024-05-09T20:24:22.684Z,33.02
2024-05-09T20:29:24.231Z,33.47
2024-05-09T20:34:25.824Z,33.62
2024-05-09T20:39:27.485Z,33.19
2024-05-09T20:44:29.022Z,33.13
2024-05-09T20:49:30.733Z,33.40
2024-05-09T20:54:32.516Z,33.10
2024-05-09T20:59:34.123Z,33.66
2024-05-09T21:04:35.980Z,33.24
2024-05-09T21:09:37.720Z,33.64
2024-05-09T21:14:39.299Z,33.52
2024-05-09T21:19:40.872Z,33.38
2024-05-09T21:24:42.684Z,33.37
2024-05-09T21:29:44.316Z,33.82
2024-05-09T21:34:46.057Z,33.69
2024-05-09T21:39:47.881Z,33.85
2024-05-09T21:44:49.441Z,33.72
2024-05-09T21:49:50.998Z,33.45
2024-05-09T21:54:52.721Z,33.48
2024-05-09T21:59:54.298Z,33.70
2024-05-09T22:04:55.997Z,33.80
2024-05-09T22:09:57.716Z,33.83
2024-05-09T22:14:59.268Z,33.44
2024-05-09T22:20:00.835Z,33.72
2024-05-09T22:25:02.505Z,33.23
2024-05-09T22:30:07.173Z,33.37
2024-05-09T22:35:13.245Z,33.42
2024-05-09T22:40:23.879Z,33.80
2024-05-09T22:45:30.710Z,33.71
2024-05-09T22:50:33.447Z,33.15
2024-05-09T22:55:35.376Z,33.15
2024-05-09T23:00:37.170Z,33.25
2024-05-09T23:05:38.936Z,33.53
2024-05-09T23:10:40.567Z,33.49
2024-05-09T23:15:42.271Z,33.33
2024-05-09T23:20:43.875Z,33.66
2024-05-09T23:25:45.486Z,32.97
2024-05-09T23:30:47.097Z,33.19
2024-05-09T23:35:49.561Z,33.48
2024-05-09T23:40:51.336Z,32.86
2024-05-09T23:45:53.149Z,33.32
2024-05-09T23:50:54.742Z,33.10
2024-05-09T23:55:56.290Z,33.29
